Time;durP1;ratioP1;P1;durP2;ratioP2;P2;SDS_P1;SDS_P2;PMS_P1;PMS_P2;Temp;Humidity;BMP_temperature;BMP_pressure;BME280_temperature;BME280_humidity;BME280_pressure;Samples;Min_cycle;Max_cycle;Signal;HPM_P1;HPM_P2
2022/03/15 00:00:07;;;;;;;461.97;162.73;;;;;;;2.40;96.96;100090.50;6351195;22;20284;-87
2022/03/15 00:06:34;;;;;;;460.97;159.83;;;;;;;2.17;98.60;100081.19;6351696;22;20228;-87
2022/03/15 00:12:29;;;;;;;464.07;157.20;;;;;;;1.92;100.00;100081.94;6352107;22;20517;-86
2022/03/15 00:15:20;;;;;;;461.13;157.00;;;;;;;1.92;99.86;100088.66;6297956;22;20248;-86
2022/03/15 00:17:46;;;;;;;464.00;158.17;;;;;;;1.84;100.00;100094.28;6366539;22;20288;-89
2022/03/15 00:20:15;;;;;;;463.00;161.80;;;;;;;1.74;100.00;100073.66;6339348;22;20002;-85
2022/03/15 00:22:42;;;;;;;464.40;159.97;;;;;;;1.65;100.00;100079.22;6324917;22;20053;-86
2022/03/15 00:25:12;;;;;;;462.07;161.03;;;;;;;1.35;100.00;100029.97;6352369;22;20003;-86
2022/03/15 00:31:26;;;;;;;461.20;155.73;;;;;;;1.57;100.00;100062.03;6353234;22;20279;-86
2022/03/15 00:34:34;;;;;;;466.13;156.10;;;;;;;1.59;100.00;100068.84;6355293;22;20275;-86
2022/03/15 00:37:36;;;;;;;461.43;152.43;;;;;;;1.50;100.00;100071.00;6328940;22;20270;-83
2022/03/15 00:40:15;;;;;;;462.10;153.47;;;;;;;1.41;100.00;100052.09;6323492;22;20272;-86
2022/03/15 02:52:34;;;;;;;454.08;145.23;;;;;;;0.80;100.00;100021.81;6358646;22;20022;-86
2022/03/15 02:55:00;;;;;;;448.67;139.00;;;;;;;0.77;100.00;100020.00;6318269;22;20015;-85
2022/03/15 02:57:27;;;;;;;451.60;143.13;;;;;;;0.79;100.00;100026.00;6322823;22;20039;-86
2022/03/15 02:59:53;;;;;;;453.63;144.33;;;;;;;0.75;100.00;100030.84;6320301;22;20070;-86
2022/03/15 03:02:20;;;;;;;452.03;142.97;;;;;;;0.59;100.00;100008.31;6291633;22;20075;-87
2022/03/15 03:04:46;;;;;;;449.93;144.60;;;;;;;0.73;100.00;100023.22;6318028;22;20047;-85
2022/03/15 03:07:12;;;;;;;449.73;145.13;;;;;;;0.71;100.00;100013.84;6304043;22;20014;-86
2022/03/15 03:09:37;;;;;;;449.67;145.10;;;;;;;0.71;100.00;100017.25;6334276;22;20051;-85
2022/03/15 03:12:16;;;;;;;449.53;145.27;;;;;;;0.63;100.00;100003.44;6315261;22;20014;-86
2022/03/15 03:14:45;;;;;;;448.47;143.73;;;;;;;0.41;100.00;99978.09;6315561;22;20036;-87
2022/03/15 03:24:23;;;;;;;445.50;139.23;;;;;;;0.67;100.00;100017.06;6314160;22;20014;-86
2022/03/15 03:26:50;;;;;;;446.27;140.13;;;;;;;0.57;100.00;99999.78;6287556;22;20427;-86
2022/03/15 03:29:16;;;;;;;449.93;142.37;;;;;;;0.51;100.00;99981.88;6312142;22;20539;-87
2022/03/15 03:31:43;;;;;;;447.70;143.27;;;;;;;0.72;100.00;100018.13;6314142;22;20002;-86
2022/03/15 03:34:11;;;;;;;450.53;141.90;;;;;;;0.66;100.00;100016.19;6314268;22;20007;-85
2022/03/15 03:36:38;;;;;;;449.37;143.13;;;;;;;0.59;100.00;100010.81;6314932;22;20014;-86
2022/03/15 03:39:05;;;;;;;449.10;142.07;;;;;;;0.39;100.00;99982.19;6314165;22;20033;-86
2022/03/15 03:48:14;;;;;;;445.30;136.57;;;;;;;0.80;100.00;100009.19;6316002;22;20072;-85
2022/03/15 03:50:43;;;;;;;447.33;139.67;;;;;;;0.70;100.00;100007.94;6318064;22;20011;-85
2022/03/15 03:55:40;;;;;;;449.63;143.43;;;;;;;0.67;100.00;100022.97;6341944;22;20048;-85
2022/03/15 03:58:06;;;;;;;456.87;145.97;;;;;;;0.48;100.00;99997.72;6320922;22;20015;-87
2022/03/15 04:07:43;;;;;;;447.00;141.87;;;;;;;0.53;100.00;100025.69;6355023;22;20013;-88
2022/03/15 04:10:09;;;;;;;446.27;139.67;;;;;;;0.43;100.00;100017.72;6328899;22;20237;-88
2022/03/15 04:12:36;;;;;;;447.80;142.03;;;;;;;0.40;100.00;100017.59;6314537;22;19999;-89
2022/03/15 04:18:26;;;;;;;446.60;137.70;;;;;;;0.19;100.00;99985.53;6354979;22;20039;-85
2022/03/15 04:20:52;;;;;;;449.83;141.70;;;;;;;0.08;100.00;99976.66;6346476;22;20237;-87
2022/03/15 04:23:17;;;;;;;450.53;142.60;;;;;;;0.27;100.00;100011.94;6348200;22;20002;-87
2022/03/15 04:25:44;;;;;;;445.23;140.93;;;;;;;-0.03;100.00;99979.53;6318170;22;20018;-86
2022/03/15 04:28:11;;;;;;;443.93;139.70;;;;;;;0.14;100.00;99999.59;6347843;22;20014;-86
2022/03/15 04:34:06;;;;;;;442.93;138.73;;;;;;;0.02;100.00;100001.56;6353304;22;20018;-89
2022/03/15 04:36:31;;;;;;;446.50;141.70;;;;;;;0.02;100.00;100002.44;6328154;22;20634;-87
2022/03/15 04:38:58;;;;;;;442.93;139.43;;;;;;;-0.23;100.00;99972.75;6293001;22;20014;-87
2022/03/15 04:44:52;;;;;;;443.73;136.63;;;;;;;-0.10;100.00;100005.28;6345957;22;20017;-88
2022/03/15 05:39:46;;;;;;;429.50;136.97;;;;;;;0.33;100.00;100009.69;6346726;22;20025;-86
2022/03/15 05:42:13;;;;;;;425.60;136.53;;;;;;;0.26;100.00;99972.38;6342695;22;20046;-86
2022/03/15 05:44:40;;;;;;;428.53;141.60;;;;;;;0.40;100.00;99997.41;6320246;22;20077;-88
2022/03/15 05:47:15;;;;;;;421.40;134.57;;;;;;;0.30;100.00;99964.16;6317450;22;20010;-89
2022/03/15 05:49:42;;;;;;;426.65;141.55;;;;;;;0.62;100.00;99991.63;6321499;22;20007;-88
2022/03/15 05:52:09;;;;;;;428.07;140.87;;;;;;;0.77;100.00;99998.97;6349970;22;20007;-95
2022/03/15 05:54:44;;;;;;;429.23;148.97;;;;;;;1.18;100.00;99978.81;6338412;22;19998;-92
2022/03/15 05:57:10;;;;;;;429.57;146.43;;;;;;;1.08;100.00;99966.59;6338544;22;20017;-91
2022/03/15 05:59:36;;;;;;;428.07;145.07;;;;;;;0.82;100.00;99922.63;6338341;22;19995;-90
2022/03/15 06:02:05;;;;;;;426.43;146.67;;;;;;;1.20;100.00;99948.53;6334901;22;20031;-88
2022/03/15 06:04:30;;;;;;;431.30;148.10;;;;;;;1.17;100.00;99941.72;6299264;22;20068;-86
2022/03/15 06:07:16;;;;;;;425.10;149.73;;;;;;;1.34;100.00;99952.47;6323838;22;20022;-89
2022/03/15 06:09:42;;;;;;;;;;;;;;;1.52;100.00;99983.50;6351208;22;20442;-86
2022/03/15 06:12:10;;;;;;;421.17;145.30;;;;;;;1.56;100.00;99959.22;6324671;22;19909;-86
2022/03/15 06:14:35;;;;;;;419.63;145.10;;;;;;;1.55;100.00;99960.00;6323812;22;20007;-86
2022/03/15 06:17:10;;;;;;;426.60;153.70;;;;;;;1.77;100.00;99982.75;6353213;22;20014;-86
2022/03/15 06:19:35;;;;;;;433.42;155.77;;;;;;;1.62;100.00;99944.25;6324837;22;20037;-87
2022/03/15 06:25:23;;;;;;;429.23;157.90;;;;;;;2.19;100.00;99969.16;6361378;22;20044;-87
2022/03/15 06:31:32;;;;;;;433.17;162.47;;;;;;;2.62;100.00;99986.69;6368918;22;20017;-89
2022/03/15 06:33:59;;;;;;;434.33;165.13;;;;;;;2.68;100.00;99991.94;6368098;22;20040;-90
2022/03/15 06:36:25;;;;;;;440.83;174.90;;;;;;;2.90;100.00;99978.34;6341539;22;20022;-91
2022/03/15 06:38:52;;;;;;;440.80;179.50;;;;;;;2.99;100.00;99968.50;6352032;22;20089;-88
2022/03/15 06:41:18;;;;;;;436.17;171.40;;;;;;;3.04;99.36;99974.59;6348456;22;20628;-87
2022/03/15 06:43:44;;;;;;;433.20;177.10;;;;;;;2.96;99.54;99952.38;6321496;22;20002;-87
2022/03/15 06:46:10;;;;;;;439.73;183.30;;;;;;;3.15;99.52;99985.06;6320042;22;20014;-88
2022/03/15 06:48:38;;;;;;;421.50;179.97;;;;;;;3.06;97.92;99942.56;6348230;22;20009;-88
2022/03/15 06:51:06;;;;;;;423.17;177.63;;;;;;;3.16;96.32;99971.59;6351607;22;20017;-87
2022/03/15 06:53:33;;;;;;;418.27;184.20;;;;;;;3.22;96.70;99966.72;6352043;22;20030;-87
2022/03/15 06:55:59;;;;;;;413.87;186.57;;;;;;;3.36;95.94;99988.28;6350074;22;19999;-86
2022/03/15 06:58:26;;;;;;;420.97;188.83;;;;;;;3.36;95.10;99960.41;6322707;22;20066;-87
2022/03/15 07:00:55;;;;;;;420.47;187.63;;;;;;;3.50;94.96;99974.38;6353623;22;20010;-88
2022/03/15 07:03:23;;;;;;;418.27;188.13;;;;;;;3.60;93.69;99966.25;6352317;22;20029;-86
2022/03/15 07:05:49;;;;;;;414.47;190.90;;;;;;;3.67;93.45;99959.66;6326492;22;20006;-87
2022/03/15 07:08:16;;;;;;;422.30;191.67;;;;;;;3.69;93.40;99963.13;6332619;22;19991;-87
2022/03/15 07:10:42;;;;;;;422.13;202.63;;;;;;;3.71;93.03;99943.72;6363974;22;20010;-86
2022/03/15 07:13:08;;;;;;;413.50;200.77;;;;;;;3.79;92.95;99949.00;6362489;22;20053;-88
2022/03/15 07:15:39;;;;;;;410.30;200.67;;;;;;;3.94;91.57;99935.09;6352424;22;20007;-87
2022/03/15 07:18:05;;;;;;;411.13;206.93;;;;;;;4.24;90.86;99957.06;6349828;22;20009;-89
2022/03/15 07:20:32;;;;;;;430.07;211.70;;;;;;;4.24;87.76;99926.63;6350046;22;20026;-87
2022/03/15 07:22:57;;;;;;;409.40;207.93;;;;;;;4.21;87.50;99927.38;6322446;22;20030;-88
2022/03/15 07:25:24;;;;;;;416.90;214.43;;;;;;;4.35;86.70;99922.66;6349164;22;20403;-89
2022/03/15 07:27:49;;;;;;;416.53;215.00;;;;;;;4.44;84.95;99946.63;6350174;22;20017;-87
2022/03/15 07:30:15;;;;;;;417.73;216.50;;;;;;;4.51;83.84;99942.56;6324229;22;20011;-86
2022/03/15 07:32:44;;;;;;;420.93;221.93;;;;;;;4.47;84.79;99961.94;6324409;22;20021;-87
2022/03/15 07:35:12;;;;;;;417.30;227.30;;;;;;;4.56;85.94;99946.09;6354085;22;20034;-90
2022/03/15 07:37:50;;;;;;;418.63;231.83;;;;;;;4.85;84.23;99950.22;6365301;22;20045;-89
2022/03/15 07:40:15;;;;;;;461.37;239.27;;;;;;;4.98;81.36;99949.69;6281209;22;20425;-61
2022/03/15 07:42:40;;;;;;;420.70;237.23;;;;;;;4.89;81.55;99936.78;6268694;22;19999;-60
2022/03/15 07:45:06;;;;;;;420.90;238.83;;;;;;;4.95;80.43;99925.91;6273294;22;20388;-62
2022/03/15 07:47:31;;;;;;;422.27;242.53;;;;;;;5.13;80.37;99961.94;6269100;22;20010;-61
2022/03/15 07:49:57;;;;;;;424.80;255.03;;;;;;;5.34;78.33;99928.53;6268130;22;20090;-61
2022/03/15 07:52:22;;;;;;;420.10;252.87;;;;;;;5.37;78.63;99915.88;6269766;22;20434;-60
2022/03/15 07:54:48;;;;;;;431.00;253.60;;;;;;;5.60;76.53;99929.94;6273386;22;20007;-61
2022/03/15 07:57:14;;;;;;;425.37;263.67;;;;;;;5.55;76.25;99941.72;6268381;22;20129;-61
2022/03/15 07:59:39;;;;;;;444.40;267.40;;;;;;;5.48;77.13;99912.72;6268138;22;20083;-61
2022/03/15 08:02:05;;;;;;;419.53;257.27;;;;;;;5.83;75.54;99923.66;6270258;22;20058;-61
2022/03/15 08:04:30;;;;;;;421.73;260.67;;;;;;;5.98;74.26;99912.97;6273239;22;20011;-61
2022/03/15 08:06:55;;;;;;;426.57;280.37;;;;;;;6.12;73.46;99915.75;6268033;22;20050;-61
2022/03/15 08:09:22;;;;;;;440.37;279.63;;;;;;;6.17;72.76;99904.00;6267061;22;20468;-59
2022/03/15 08:11:47;;;;;;;427.63;281.83;;;;;;;6.08;71.71;99904.66;6271189;22;20008;-61
2022/03/15 08:14:13;;;;;;;416.97;279.47;;;;;;;6.15;71.55;99906.53;6272824;22;20430;-60
2022/03/15 08:16:38;;;;;;;431.63;287.83;;;;;;;6.11;70.46;99906.44;6267633;22;20008;-61
2022/03/15 08:19:05;;;;;;;425.47;281.70;;;;;;;6.39;69.64;99916.28;6266098;22;20008;-60
2022/03/15 08:21:31;;;;;;;415.80;280.07;;;;;;;6.30;69.38;99898.28;6272268;22;20008;-61
2022/03/15 08:23:57;;;;;;;416.33;278.90;;;;;;;6.62;68.20;99897.16;6273607;22;20007;-62
2022/03/15 08:26:23;;;;;;;407.37;291.63;;;;;;;7.03;65.57;99902.09;6265278;22;20003;-61
2022/03/15 08:28:49;;;;;;;418.67;300.57;;;;;;;7.05;63.57;99893.63;6268223;22;20073;-61
2022/03/15 08:31:15;;;;;;;435.73;317.23;;;;;;;7.12;64.18;99877.59;6271862;22;20466;-62
2022/03/15 08:33:40;;;;;;;421.23;325.17;;;;;;;7.11;64.18;99882.66;6271066;22;20369;-61
2022/03/15 08:36:06;;;;;;;426.73;328.23;;;;;;;7.28;62.89;99871.00;6266545;22;20040;-61
2022/03/15 08:38:31;;;;;;;436.43;330.70;;;;;;;7.48;62.26;99889.13;6267406;22;20105;-61
2022/03/15 08:40:58;;;;;;;419.00;326.63;;;;;;;7.60;62.06;99871.44;6190784;22;20033;-61
2022/03/15 08:43:24;;;;;;;424.67;352.20;;;;;;;7.86;59.89;99876.84;6146064;23;20005;-61
2022/03/15 08:45:50;;;;;;;419.03;346.13;;;;;;;7.81;59.99;99871.69;6140776;22;20096;-61
2022/03/15 08:48:15;;;;;;;421.43;337.87;;;;;;;8.07;60.43;99877.09;6144172;23;20014;-61
2022/03/15 08:50:41;;;;;;;436.63;352.00;;;;;;;8.26;59.90;99885.00;6145671;22;20017;-61
2022/03/15 08:53:06;;;;;;;432.83;371.60;;;;;;;8.18;60.30;99886.63;6275188;22;20335;-62
2022/03/15 08:55:33;;;;;;;431.97;364.93;;;;;;;8.38;59.01;99876.63;6139866;23;20010;-61
2022/03/15 08:57:58;;;;;;;430.93;383.47;;;;;;;8.42;59.87;99868.16;6144537;23;20339;-60
2022/03/15 09:00:24;;;;;;;437.10;389.50;;;;;;;8.65;58.81;99860.69;6144692;23;20009;-61
2022/03/15 09:02:50;;;;;;;435.93;387.03;;;;;;;8.78;57.95;99870.19;6145791;23;20006;-61
2022/03/15 09:05:19;;;;;;;453.50;404.67;;;;;;;8.83;58.10;99870.19;6140219;23;20077;-61
2022/03/15 09:07:52;;;;;;;449.60;400.60;;;;;;;9.02;58.44;99846.47;6143801;23;20081;-61
2022/03/15 09:10:21;;;;;;;460.53;411.30;;;;;;;9.18;58.04;99818.44;6273053;22;20014;-61
2022/03/15 09:12:46;;;;;;;469.33;418.70;;;;;;;9.51;55.79;99837.34;6144228;23;20139;-61
2022/03/15 09:15:13;;;;;;;479.37;430.73;;;;;;;9.87;55.45;99840.06;6141001;23;20041;-61
2022/03/15 09:17:39;;;;;;;486.37;437.40;;;;;;;10.09;55.27;99821.34;6145804;23;20016;-60
2022/03/15 09:20:05;;;;;;;500.33;450.90;;;;;;;9.95;53.95;99823.03;6146737;23;20005;-61
2022/03/15 09:22:31;;;;;;;513.33;464.00;;;;;;;9.89;53.79;99809.31;6142127;22;20100;-60
2022/03/15 09:24:56;;;;;;;522.07;471.57;;;;;;;10.35;53.79;99818.00;6140343;23;20037;-61
2022/03/15 09:27:22;;;;;;;525.40;475.63;;;;;;;10.54;53.67;99815.44;6144670;23;20014;-61
2022/03/15 09:29:47;;;;;;;543.57;492.63;;;;;;;10.86;52.34;99814.59;6147026;23;20111;-61
2022/03/15 09:32:12;;;;;;;558.40;507.83;;;;;;;11.18;50.89;99805.09;6141852;23;20018;-61
2022/03/15 09:34:38;;;;;;;569.43;519.07;;;;;;;11.33;50.65;99799.09;6143058;23;20328;-62
2022/03/15 09:37:05;;;;;;;587.00;535.20;;;;;;;11.55;50.10;99786.97;6144933;23;20040;-61
2022/03/15 09:39:31;;;;;;;595.13;541.77;;;;;;;11.74;49.44;99793.78;6146480;22;20541;-61
2022/03/15 09:41:59;;;;;;;616.13;564.47;;;;;;;11.76;50.32;99787.78;6140788;23;20719;-61
2022/03/15 09:44:27;;;;;;;623.10;573.00;;;;;;;11.77;50.73;99780.94;6142115;23;20681;-60
2022/03/15 09:46:55;;;;;;;636.80;585.90;;;;;;;12.04;50.66;99767.91;6146785;23;20009;-60
2022/03/15 09:49:22;;;;;;;643.90;592.83;;;;;;;12.24;50.57;99772.91;6144207;23;20005;-60
2022/03/15 09:51:48;;;;;;;658.53;607.63;;;;;;;12.39;48.92;99777.09;6142237;23;20451;-62
2022/03/15 09:54:15;;;;;;;654.23;603.77;;;;;;;12.67;48.23;99755.41;6142147;23;20017;-60
2022/03/15 09:56:41;;;;;;;664.90;614.77;;;;;;;12.81;46.67;99758.72;6146835;23;20014;-60
2022/03/15 09:59:16;;;;;;;671.60;620.87;;;;;;;12.95;46.37;99745.66;6144730;23;20067;-60
2022/03/15 10:01:46;;;;;;;682.83;632.15;;;;;;;13.08;45.77;99740.38;6140976;23;20047;-61
2022/03/15 10:04:11;;;;;;;688.73;638.17;;;;;;;13.30;45.29;99738.44;6143515;23;20006;-61
2022/03/15 10:06:38;;;;;;;701.10;650.78;;;;;;;13.46;44.92;99715.91;6145108;23;20013;-61
2022/03/15 10:09:08;;;;;;;709.75;658.15;;;;;;;13.37;45.81;99705.72;6144029;23;20009;-61
2022/03/15 10:11:34;;;;;;;718.55;667.03;;;;;;;13.63;45.33;99703.66;6140415;23;20599;-61
2022/03/15 10:14:00;;;;;;;725.05;673.80;;;;;;;13.88;44.21;99698.97;6145035;23;20032;-61
2022/03/15 10:16:36;;;;;;;735.63;683.30;;;;;;;14.11;43.51;99694.34;6143651;23;20005;-62
2022/03/15 10:19:02;;;;;;;733.42;681.45;;;;;;;14.27;43.11;99688.03;6141366;23;20010;-62
2022/03/15 10:21:37;;;;;;;753.58;701.22;;;;;;;14.60;43.35;99694.34;6139964;22;20013;-62
2022/03/15 10:24:06;;;;;;;769.03;716.20;;;;;;;14.81;42.43;99691.38;6145885;23;20010;-62
2022/03/15 10:26:37;;;;;;;782.67;730.25;;;;;;;15.03;42.02;99679.75;6144213;23;20071;-62
2022/03/15 10:29:03;;;;;;;784.55;731.50;;;;;;;15.23;41.96;99675.94;6141558;22;20029;-62
2022/03/15 10:31:29;;;;;;;796.28;743.75;;;;;;;15.24;41.02;99664.69;6141223;23;20010;-62
2022/03/15 10:34:00;;;;;;;795.95;742.42;;;;;;;15.52;40.15;99658.09;6145561;23;20064;-60
2022/03/15 10:36:27;;;;;;;821.28;767.47;;;;;;;15.53;39.67;99659.78;6144906;23;20009;-62
2022/03/15 10:38:53;;;;;;;823.45;769.33;;;;;;;15.44;40.72;99654.78;6141065;22;20017;-60
2022/03/15 10:41:20;;;;;;;810.05;755.35;;;;;;;15.37;40.65;99654.06;6141185;22;20052;-61
2022/03/15 10:43:53;;;;;;;814.03;760.72;;;;;;;15.15;40.78;99642.47;6147038;23;20329;-64
2022/03/15 10:46:22;;;;;;;822.22;767.85;;;;;;;14.91;41.63;99654.19;6145550;23;20760;-62
2022/03/15 10:48:53;;;;;;;815.10;762.10;;;;;;;15.29;41.12;99645.63;6144020;23;20014;-60
2022/03/15 10:51:19;;;;;;;821.58;768.28;;;;;;;15.14;41.73;99635.63;6144515;23;20010;-62
2022/03/15 10:53:46;;;;;;;818.72;764.92;;;;;;;15.26;41.43;99635.38;6149334;23;20719;-62
2022/03/15 10:56:18;;;;;;;821.80;768.15;;;;;;;15.19;41.22;99617.47;6142371;23;20684;-62
2022/03/15 10:58:48;;;;;;;810.80;757.88;;;;;;;15.12;41.67;99592.63;6270248;22;20584;-63
2022/03/15 11:01:16;;;;;;;809.25;756.70;;;;;;;15.20;41.08;99606.22;6143231;23;20351;-62
2022/03/15 11:03:55;;;;;;;805.38;752.60;;;;;;;15.28;41.06;99581.91;6146644;23;20020;-62
2022/03/15 11:06:34;;;;;;;816.10;763.70;;;;;;;15.30;41.85;99582.75;6141256;23;20013;-62
2022/03/15 11:09:00;;;;;;;817.58;765.28;;;;;;;15.40;41.03;99560.94;6142018;23;20012;-62
2022/03/15 11:11:27;;;;;;;820.13;768.30;;;;;;;15.40;39.89;99573.88;6144077;23;20022;-62
2022/03/15 11:14:06;;;;;;;815.60;764.20;;;;;;;15.54;40.55;99569.28;6146537;23;20365;-62
2022/03/15 11:16:36;;;;;;;817.05;765.20;;;;;;;15.64;40.23;99577.66;6140612;23;20096;-63
2022/03/15 11:19:03;;;;;;;823.22;771.15;;;;;;;15.58;39.58;99571.78;6143566;23;20010;-62
2022/03/15 11:21:36;;;;;;;831.38;779.17;;;;;;;15.48;39.66;99553.03;6146259;23;20193;-62
2022/03/15 11:24:07;;;;;;;826.05;773.70;;;;;;;15.26;38.47;99555.28;6147238;23;20007;-62
2022/03/15 11:26:33;;;;;;;819.88;768.28;;;;;;;15.50;38.74;99549.56;6140594;22;20368;-62
2022/03/15 11:29:02;;;;;;;811.28;759.25;;;;;;;15.21;37.33;99523.53;6144279;23;20667;-62
2022/03/15 11:31:29;;;;;;;825.17;773.38;;;;;;;15.27;38.02;99538.91;6146344;23;20006;-61
2022/03/15 11:33:56;;;;;;;811.60;761.03;;;;;;;15.38;36.83;99528.28;6143504;23;20323;-62
2022/03/15 11:36:25;;;;;;;809.67;759.22;;;;;;;15.29;36.27;99513.00;6140272;23;20797;-62
2022/03/15 11:38:52;;;;;;;808.15;758.38;;;;;;;15.39;35.94;99517.09;6144302;23;20005;-62
2022/03/15 11:41:20;;;;;;;807.65;757.65;;;;;;;15.32;36.60;99507.78;6144998;23;20033;-62
2022/03/15 11:44:00;;;;;;;823.20;772.72;;;;;;;15.43;36.41;99503.19;6143697;23;20070;-62
2022/03/15 11:46:29;;;;;;;808.75;758.42;;;;;;;15.54;36.93;99501.22;6139941;23;20013;-62
2022/03/15 11:49:08;;;;;;;809.42;759.58;;;;;;;15.46;37.13;99498.81;6144848;23;20017;-62
2022/03/15 11:52:04;;;;;;;808.75;759.80;;;;;;;15.65;36.13;99490.63;6145202;23;20473;-62
2022/03/15 11:54:44;;;;;;;806.58;757.03;;;;;;;15.81;36.12;99499.66;6142649;23;20010;-62
2022/03/15 11:57:24;;;;;;;806.97;758.13;;;;;;;15.65;36.84;99506.13;6141967;23;20013;-62
2022/03/15 11:59:52;;;;;;;818.92;769.40;;;;;;;15.70;36.60;99502.53;6146775;23;20010;-63
2022/03/15 12:02:29;;;;;;;823.97;774.78;;;;;;;15.80;37.44;99497.97;6142595;23;20040;-62
2022/03/15 12:04:56;;;;;;;811.28;762.80;;;;;;;15.67;36.94;99489.69;6141582;23;20089;-62
2022/03/15 12:07:46;;;;;;;807.00;758.55;;;;;;;15.79;36.65;99485.91;6143244;23;20013;-60
2022/03/15 12:10:22;;;;;;;821.53;771.45;;;;;;;15.92;36.49;99482.13;6146306;23;20017;-60
2022/03/15 12:12:58;;;;;;;818.95;769.28;;;;;;;15.77;37.13;99464.44;6140762;23;20013;-61
2022/03/15 12:15:36;;;;;;;829.35;779.65;;;;;;;15.78;37.03;99482.50;6142324;23;20357;-61
2022/03/15 12:18:09;;;;;;;822.88;774.15;;;;;;;15.62;37.53;99473.44;6144746;23;20005;-61
2022/03/15 12:20:46;;;;;;;819.03;770.72;;;;;;;15.70;36.79;99460.34;6145216;23;20058;-60
2022/03/15 12:23:22;;;;;;;832.20;782.70;;;;;;;15.73;36.79;99457.66;6267940;22;20029;-62
2022/03/15 12:25:53;;;;;;;826.55;777.42;;;;;;;15.81;36.57;99450.53;6143250;23;20020;-62
2022/03/15 12:28:29;;;;;;;830.60;781.55;;;;;;;15.72;36.37;99461.97;6143607;23;20005;-62
2022/03/15 12:31:06;;;;;;;828.67;779.25;;;;;;;15.67;36.47;99460.38;6143408;23;20021;-62
2022/03/15 12:33:32;;;;;;;818.85;769.55;;;;;;;15.43;36.41;99425.66;6141136;23;20557;-62
2022/03/15 12:36:08;;;;;;;820.28;770.92;;;;;;;15.38;36.26;99441.28;6145565;23;20031;-62
2022/03/15 12:38:41;;;;;;;814.42;765.22;;;;;;;15.51;36.24;99440.13;6144796;22;20462;-62
2022/03/15 12:41:08;;;;;;;809.55;760.67;;;;;;;15.52;36.17;99422.88;6142611;23;20086;-62
2022/03/15 12:43:34;;;;;;;818.53;768.75;;;;;;;15.34;36.97;99431.94;6139834;23;20014;-62
2022/03/15 12:46:07;;;;;;;812.10;762.63;;;;;;;15.35;36.45;99417.28;6147202;23;20009;-62
2022/03/15 12:48:37;;;;;;;800.88;752.28;;;;;;;15.12;36.17;99412.66;6143972;23;20421;-62
2022/03/15 12:51:16;;;;;;;795.55;747.80;;;;;;;15.08;37.09;99419.66;6140523;23;20055;-65
2022/03/15 12:53:47;;;;;;;809.25;759.08;;;;;;;15.05;36.74;99411.13;6140396;23;20276;-61
2022/03/15 12:56:13;;;;;;;807.85;753.92;;;;;;;14.96;36.23;99407.03;6147504;23;20006;-59
2022/03/15 12:58:39;;;;;;;819.08;761.67;;;;;;;14.72;36.75;99393.88;6143555;23;20009;-60
2022/03/15 13:01:11;;;;;;;821.08;761.47;;;;;;;14.78;37.68;99406.63;6141394;23;20021;-60
2022/03/15 13:03:38;;;;;;;812.63;751.60;;;;;;;14.78;36.55;99411.78;6142753;23;20017;-66
2022/03/15 13:06:04;;;;;;;806.00;745.50;;;;;;;14.82;36.86;99403.94;6147471;23;20033;-66
2022/03/15 13:08:31;;;;;;;813.78;752.38;;;;;;;14.81;36.40;99401.41;6143026;23;20041;-65
2022/03/15 13:11:03;;;;;;;807.38;746.08;;;;;;;14.96;37.29;99414.78;6141640;23;20017;-65
2022/03/15 13:13:29;;;;;;;815.03;753.13;;;;;;;14.63;37.43;99406.13;6144099;23;20032;-64
2022/03/15 13:16:09;;;;;;;802.67;741.28;;;;;;;14.94;37.04;99421.72;6145303;23;20084;-64
2022/03/15 13:18:36;;;;;;;806.30;744.42;;;;;;;14.97;37.08;99416.50;6141743;23;20017;-61
2022/03/15 13:21:07;;;;;;;802.80;741.22;;;;;;;14.77;37.63;99400.59;6270172;22;20013;-63
2022/03/15 13:23:48;;;;;;;807.35;745.65;;;;;;;14.79;37.26;99380.78;6146586;23;20032;-63
2022/03/15 13:26:16;;;;;;;800.97;739.17;;;;;;;14.80;37.90;99379.91;6144192;23;20443;-63
2022/03/15 13:28:47;;;;;;;806.67;745.05;;;;;;;14.88;37.07;99370.25;6139047;23;20010;-64
2022/03/15 13:31:15;;;;;;;798.70;737.65;;;;;;;14.83;37.59;99366.06;6141058;23;20014;-62
2022/03/15 13:33:44;;;;;;;795.55;734.38;;;;;;;14.95;37.40;99386.41;6144119;23;20089;-62
2022/03/15 13:36:14;;;;;;;800.85;739.80;;;;;;;14.88;37.61;99406.38;6141738;23;20005;-62
2022/03/15 13:38:47;;;;;;;805.92;744.50;;;;;;;14.71;38.43;99398.19;6138043;22;20179;-62
2022/03/15 13:41:18;;;;;;;807.67;746.75;;;;;;;14.92;37.81;99399.41;6140572;22;20033;-62
2022/03/15 13:43:44;;;;;;;802.28;742.28;;;;;;;14.72;38.04;99406.78;6142856;23;20006;-63
2022/03/15 13:46:15;;;;;;;811.35;750.78;;;;;;;14.62;38.65;99393.22;6141732;22;20106;-62
2022/03/15 13:48:42;;;;;;;793.97;733.97;;;;;;;14.70;38.44;99377.56;6139380;23;20499;-61
2022/03/15 13:51:13;;;;;;;791.42;731.72;;;;;;;14.82;38.09;99374.69;6142233;23;20014;-62
2022/03/15 13:53:46;;;;;;;790.85;731.80;;;;;;;14.87;37.95;99370.25;6144329;23;20434;-62
2022/03/15 13:56:19;;;;;;;801.95;742.17;;;;;;;14.69;38.06;99360.38;6141001;23;20600;-62
2022/03/15 13:59:01;;;;;;;799.05;739.90;;;;;;;14.78;38.34;99366.16;6139057;23;20063;-62
2022/03/15 14:01:33;;;;;;;796.72;737.03;;;;;;;14.54;38.19;99364.19;6143620;23;20002;-62
2022/03/15 14:04:08;;;;;;;789.78;730.28;;;;;;;14.49;38.01;99369.44;6272835;22;20018;-63
2022/03/15 14:06:37;;;;;;;785.25;725.80;;;;;;;14.56;37.87;99370.13;6138642;23;20013;-61
2022/03/15 14:09:04;;;;;;;790.92;731.88;;;;;;;14.62;38.81;99372.59;6139611;23;20006;-62
2022/03/15 14:11:35;;;;;;;792.03;730.15;;;;;;;14.38;38.39;99350.78;6141132;23;20014;-61
2022/03/15 14:14:06;;;;;;;799.60;736.88;;;;;;;14.64;38.06;99363.91;6142836;23;20017;-61
2022/03/15 14:16:43;;;;;;;786.10;723.88;;;;;;;14.72;38.29;99353.44;6139006;23;20025;-63
2022/03/15 14:19:13;;;;;;;792.10;730.75;;;;;;;14.81;38.23;99365.28;6141733;23;20104;-64
2022/03/15 14:21:41;;;;;;;789.28;728.53;;;;;;;14.83;37.96;99358.31;6146294;23;20035;-64
2022/03/15 14:24:08;;;;;;;809.85;748.25;;;;;;;14.70;38.53;99362.06;6142545;23;20005;-64
2022/03/15 14:26:34;;;;;;;794.92;734.97;;;;;;;14.44;38.39;99347.19;6140678;23;20021;-63
2022/03/15 14:29:11;;;;;;;793.58;733.25;;;;;;;14.36;38.78;99347.38;6144477;23;20040;-64
2022/03/15 14:31:40;;;;;;;775.25;715.72;;;;;;;14.51;39.00;99353.94;6143333;23;20001;-64
2022/03/15 14:34:09;;;;;;;791.33;731.83;;;;;;;14.24;39.24;99352.78;6143395;23;20093;-62
2022/03/15 14:36:36;;;;;;;779.83;719.85;;;;;;;14.26;39.25;99356.16;6142394;23;20009;-63
2022/03/15 14:39:14;;;;;;;797.95;737.63;;;;;;;14.37;39.53;99353.41;6143792;23;20540;-61
2022/03/15 14:41:43;;;;;;;792.03;732.42;;;;;;;14.16;39.34;99341.78;6146205;22;20106;-61
2022/03/15 14:44:10;;;;;;;791.50;731.20;;;;;;;13.78;40.33;99347.78;6138057;23;20369;-61
2022/03/15 14:46:38;;;;;;;787.90;726.10;;;;;;;13.76;40.48;99341.78;6139591;23;20130;-60
2022/03/15 14:49:06;;;;;;;780.45;720.05;;;;;;;13.69;40.58;99337.63;6145847;23;20037;-61
2022/03/15 14:51:31;;;;;;;794.47;733.28;;;;;;;13.34;40.94;99324.59;6144519;23;20017;-61
2022/03/15 14:53:57;;;;;;;778.63;717.75;;;;;;;13.24;41.56;99326.47;6141729;23;20317;-60
2022/03/15 14:56:23;;;;;;;771.30;710.83;;;;;;;13.13;42.25;99325.84;6142009;22;20010;-64
2022/03/15 14:58:48;;;;;;;766.00;706.50;;;;;;;13.22;41.49;99344.56;6147469;23;19997;-61
2022/03/15 15:01:14;;;;;;;762.67;703.47;;;;;;;13.12;41.16;99318.97;6146037;23;20090;-63
2022/03/15 15:03:39;;;;;;;766.97;708.67;;;;;;;13.17;40.81;99314.59;6141716;22;20002;-63